Airfield :
LOGIN :

Register | Disclaimer

   EN    FR    IT 

 










Legend :    VFR   Marginal VFR   IFR   Intensive IFR   Very Intensive IFR
Visi :
Ceiling :
>= 8 km
>= 3000ft
5 to 8 km
1000 to 3000 ft
1500m to 5 km
500 to 1000 ft
800 to 1500m
200 to 500 ft
< 800m
< 200 ft
Symbols :   Thunderstorms  Fog  Heavy snow  Heavy precipitations  Wind > 20 kt
SIGMETs :     Misc.  Thunderstorms  Icing  Turbulence  Mountain Waves  Volcanic Ashes






- Airport Elevation : 242 ft
- IATA code : DUB


EIDW - Dublin

CURRENT METAR :
  • 221330Z 23011KT 190V270 9999 FEW018 SCT038 BKN060 17/08 Q1006 NOSIG

EXPIRED METARs :
  • 221300Z 21011KT 140V260 9999 FEW018 SCT042 BKN160 17/10 Q1007 NOSIG
  • 221230Z 23012G23KT 200V270 9999 FEW018 SCT036 BKN042 16/09 Q1007 NOSIG
  • 221200Z 22011KT 170V250 9999 FEW018 SCT032 BKN050 16/09 Q1007 NOSIG
  • 221130Z 23009KT 200V270 9999 FEW018 SCT042 BKN050 16/09 Q1007 NOSIG
  • 221100Z 23011KT 190V280 9999 FEW018 SCT048 BKN160 15/09 Q1008 NOSIG

TAF TAF EIDW
Valid from the 22 at 12:00 until the 23 at 12:00 UTC


221100Z 2212/2312 23012KT 9999 FEW018 SCT045
PROB40
TEMPO 2213/2217 24015G25KT -SHRA
BECMG 2218/2220 24007KT
BECMG 2307/2309 31007KT
TEMPO 2310/2312 -SHRA SCT018CB
PROB30
TEMPO 2311/2312 SHRA



MET'MAP, your aeronautical weather chart ! - Copyright ORBIFLY December 2007 - Disclaimer

ORBIFLY MET'MAP TEAM :

Programming & Development : Alexandra Zaïnal
Original concept : Baudouin d'Aumeries
Technical & hardware support : Manuel Goepfert
Assistance : Marc-Olivier Méhu

Contact : metmap@orbifly.com




SOURCES & CREDITS :

   NOAA